sensor_id;sensor_type;location;lat;lon;timestamp;pressure;altitude;pressure_sealevel;temperature;humidity
61568;BME280;47462;59.172;17.196;2022-10-17T00:00:11;100582.72;;;9.37;80.00
61568;BME280;47462;59.172;17.196;2022-10-17T00:02:37;100519.38;;;9.02;80.08
61568;BME280;47462;59.172;17.196;2022-10-17T00:05:02;100545.69;;;9.25;79.15
61568;BME280;47462;59.172;17.196;2022-10-17T00:07:29;100491.72;;;8.98;79.17
61568;BME280;47462;59.172;17.196;2022-10-17T00:09:55;100604.81;;;9.56;78.59
61568;BME280;47462;59.172;17.196;2022-10-17T00:12:20;100614.28;;;9.59;78.42
61568;BME280;47462;59.172;17.196;2022-10-17T00:14:45;100571.13;;;9.49;78.46
61568;BME280;47462;59.172;17.196;2022-10-17T00:17:11;100580.84;;;9.43;78.77
61568;BME280;47462;59.172;17.196;2022-10-17T00:19:36;100606.44;;;9.60;79.04
61568;BME280;47462;59.172;17.196;2022-10-17T00:22:03;100618.47;;;9.64;78.73
61568;BME280;47462;59.172;17.196;2022-10-17T00:24:30;100531.19;;;9.15;78.17
61568;BME280;47462;59.172;17.196;2022-10-17T00:26:55;100627.81;;;9.73;78.27
61568;BME280;47462;59.172;17.196;2022-10-17T00:29:21;100646.84;;;9.75;77.68
61568;BME280;47462;59.172;17.196;2022-10-17T00:31:46;100589.94;;;9.60;77.44
61568;BME280;47462;59.172;17.196;2022-10-17T00:34:12;100632.81;;;9.81;77.71
61568;BME280;47462;59.172;17.196;2022-10-17T00:36:37;100622.59;;;9.73;77.80
61568;BME280;47462;59.172;17.196;2022-10-17T00:39:03;100555.81;;;9.36;77.79
61568;BME280;47462;59.172;17.196;2022-10-17T00:41:31;100566.31;;;9.33;77.82
61568;BME280;47462;59.172;17.196;2022-10-17T00:44:06;100651.81;;;9.85;77.98
61568;BME280;47462;59.172;17.196;2022-10-17T00:46:38;100571.34;;;9.41;78.44
61568;BME280;47462;59.172;17.196;2022-10-17T00:49:07;100608.03;;;9.64;78.41
61568;BME280;47462;59.172;17.196;2022-10-17T00:51:40;100632.78;;;9.82;76.84
61568;BME280;47462;59.172;17.196;2022-10-17T00:54:07;100647.06;;;10.00;76.54
61568;BME280;47462;59.172;17.196;2022-10-17T00:56:33;100629.13;;;9.90;76.62
61568;BME280;47462;59.172;17.196;2022-10-17T00:58:59;100653.91;;;10.05;76.55
61568;BME280;47462;59.172;17.196;2022-10-17T01:01:25;100603.47;;;9.74;76.61
61568;BME280;47462;59.172;17.196;2022-10-17T01:03:51;100678.22;;;10.05;76.54
61568;BME280;47462;59.172;17.196;2022-10-17T01:06:16;100642.03;;;9.94;77.11
61568;BME280;47462;59.172;17.196;2022-10-17T01:08:42;100670.50;;;10.02;76.78
61568;BME280;47462;59.172;17.196;2022-10-17T01:11:12;100667.09;;;10.00;76.70
61568;BME280;47462;59.172;17.196;2022-10-17T01:13:47;100697.44;;;10.01;76.52
61568;BME280;47462;59.172;17.196;2022-10-17T01:32:17;100716.84;;;9.91;74.97
61568;BME280;47462;59.172;17.196;2022-10-17T01:37:29;100697.25;;;9.76;74.82
61568;BME280;47462;59.172;17.196;2022-10-17T01:40:10;100730.00;;;9.85;75.39
61568;BME280;47462;59.172;17.196;2022-10-17T01:42:45;100725.09;;;9.72;75.51
61568;BME280;47462;59.172;17.196;2022-10-17T01:45:27;100740.84;;;9.68;76.01
61568;BME280;47462;59.172;17.196;2022-10-17T01:47:58;100736.84;;;9.54;75.45
61568;BME280;47462;59.172;17.196;2022-10-17T01:50:31;100756.56;;;9.64;75.63
61568;BME280;47462;59.172;17.196;2022-10-17T01:53:01;100628.22;;;8.86;75.70
61568;BME280;47462;59.172;17.196;2022-10-17T01:55:34;100740.59;;;9.42;75.65
61568;BME280;47462;59.172;17.196;2022-10-17T01:58:05;100718.25;;;9.32;75.69
61568;BME280;47462;59.172;17.196;2022-10-17T02:00:32;100773.06;;;9.65;75.75
61568;BME280;47462;59.172;17.196;2022-10-17T02:03:04;100769.66;;;9.61;75.87
61568;BME280;47462;59.172;17.196;2022-10-17T02:05:34;100700.81;;;8.98;75.94
61568;BME280;47462;59.172;17.196;2022-10-17T02:08:01;100711.00;;;9.07;76.28
61568;BME280;47462;59.172;17.196;2022-10-17T02:16:03;100688.28;;;8.75;76.32
61568;BME280;47462;59.172;17.196;2022-10-17T02:21:40;100803.09;;;9.44;76.10
61568;BME280;47462;59.172;17.196;2022-10-17T02:27:10;100735.69;;;8.89;76.52
61568;BME280;47462;59.172;17.196;2022-10-17T02:29:49;100776.13;;;9.06;77.02
61568;BME280;47462;59.172;17.196;2022-10-17T02:32:32;100809.69;;;9.20;76.73
61568;BME280;47462;59.172;17.196;2022-10-17T02:35:00;100822.53;;;9.27;76.66
61568;BME280;47462;59.172;17.196;2022-10-17T02:37:27;100818.13;;;9.31;76.40
61568;BME280;47462;59.172;17.196;2022-10-17T02:39:56;100716.09;;;8.73;76.36
61568;BME280;47462;59.172;17.196;2022-10-17T02:42:24;100820.75;;;9.31;76.55
61568;BME280;47462;59.172;17.196;2022-10-17T02:44:51;100732.50;;;8.77;76.25
61568;BME280;47462;59.172;17.196;2022-10-17T02:47:24;100819.13;;;9.25;76.39
61568;BME280;47462;59.172;17.196;2022-10-17T02:49:54;100802.34;;;8.97;76.91
61568;BME280;47462;59.172;17.196;2022-10-17T02:52:27;100828.88;;;9.14;76.94
61568;BME280;47462;59.172;17.196;2022-10-17T02:54:58;100768.00;;;8.79;76.86
61568;BME280;47462;59.172;17.196;2022-10-17T02:59:54;100846.03;;;9.24;76.33
61568;BME280;47462;59.172;17.196;2022-10-17T03:02:22;100850.53;;;9.18;76.64
61568;BME280;47462;59.172;17.196;2022-10-17T03:04:47;100837.88;;;8.99;76.89
61568;BME280;47462;59.172;17.196;2022-10-17T03:07:15;100849.69;;;9.16;76.73
61568;BME280;47462;59.172;17.196;2022-10-17T03:09:41;100778.75;;;8.62;76.79
61568;BME280;47462;59.172;17.196;2022-10-17T03:12:06;100745.47;;;8.31;76.78
61568;BME280;47462;59.172;17.196;2022-10-17T03:14:31;100821.03;;;8.73;77.33
61568;BME280;47462;59.172;17.196;2022-10-17T03:16:57;100811.66;;;8.63;76.96
61568;BME280;47462;59.172;17.196;2022-10-17T03:19:22;100832.16;;;8.80;77.38
61568;BME280;47462;59.172;17.196;2022-10-17T03:21:48;100864.16;;;8.87;77.29
61568;BME280;47462;59.172;17.196;2022-10-17T03:24:13;100865.16;;;8.78;77.56
61568;BME280;47462;59.172;17.196;2022-10-17T03:26:39;100877.59;;;8.64;77.60
61568;BME280;47462;59.172;17.196;2022-10-17T03:29:04;100896.47;;;8.73;77.33
61568;BME280;47462;59.172;17.196;2022-10-17T03:31:30;100850.03;;;8.52;77.13
61568;BME280;47462;59.172;17.196;2022-10-17T03:33:55;100895.59;;;8.76;77.20
61568;BME280;47462;59.172;17.196;2022-10-17T03:36:21;100865.56;;;8.56;77.15
61568;BME280;47462;59.172;17.196;2022-10-17T03:38:46;100932.59;;;8.90;76.82
61568;BME280;47462;59.172;17.196;2022-10-17T03:41:12;100934.31;;;8.93;76.93
61568;BME280;47462;59.172;17.196;2022-10-17T03:43:38;100936.06;;;8.91;77.08
61568;BME280;47462;59.172;17.196;2022-10-17T03:46:05;100943.03;;;8.89;76.82
61568;BME280;47462;59.172;17.196;2022-10-17T03:48:31;100949.13;;;8.88;76.65
61568;BME280;47462;59.172;17.196;2022-10-17T03:51:07;100945.75;;;8.83;76.93
61568;BME280;47462;59.172;17.196;2022-10-17T03:53:34;100949.25;;;8.80;76.92
61568;BME280;47462;59.172;17.196;2022-10-17T03:56:20;100945.97;;;8.70;77.05
61568;BME280;47462;59.172;17.196;2022-10-17T03:58:46;100969.22;;;8.81;76.87
61568;BME280;47462;59.172;17.196;2022-10-17T04:01:13;100973.63;;;8.78;77.17
61568;BME280;47462;59.172;17.196;2022-10-17T04:03:40;100978.00;;;8.74;77.35
61568;BME280;47462;59.172;17.196;2022-10-17T04:06:06;100957.50;;;8.54;77.23
61568;BME280;47462;59.172;17.196;2022-10-17T04:08:32;100989.31;;;8.73;77.26
61568;BME280;47462;59.172;17.196;2022-10-17T04:11:04;100993.53;;;8.79;76.97
61568;BME280;47462;59.172;17.196;2022-10-17T04:13:30;100998.03;;;8.69;77.35
61568;BME280;47462;59.172;17.196;2022-10-17T04:16:07;100942.31;;;8.26;77.49
61568;BME280;47462;59.172;17.196;2022-10-17T04:18:34;100896.91;;;7.91;77.85
61568;BME280;47462;59.172;17.196;2022-10-17T04:21:04;100917.53;;;8.02;78.04
61568;BME280;47462;59.172;17.196;2022-10-17T04:23:30;101014.66;;;8.59;77.80
61568;BME280;47462;59.172;17.196;2022-10-17T04:25:57;101024.13;;;8.64;77.84
61568;BME280;47462;59.172;17.196;2022-10-17T04:28:23;101031.88;;;8.67;77.89
61568;BME280;47462;59.172;17.196;2022-10-17T04:31:06;101027.59;;;8.63;77.46
61568;BME280;47462;59.172;17.196;2022-10-17T04:33:32;101041.47;;;8.65;77.68
61568;BME280;47462;59.172;17.196;2022-10-17T04:36:18;101005.44;;;8.36;77.65
61568;BME280;47462;59.172;17.196;2022-10-17T04:38:44;100966.78;;;8.11;77.90
61568;BME280;47462;59.172;17.196;2022-10-17T04:41:12;101061.56;;;8.54;77.95
61568;BME280;47462;59.172;17.196;2022-10-17T04:43:38;101059.84;;;8.51;78.20
61568;BME280;47462;59.172;17.196;2022-10-17T04:46:07;101033.28;;;8.29;78.38
61568;BME280;47462;59.172;17.196;2022-10-17T04:48:32;101021.28;;;8.17;78.49
61568;BME280;47462;59.172;17.196;2022-10-17T04:51:07;101073.88;;;8.39;78.70
61568;BME280;47462;59.172;17.196;2022-10-17T04:53:34;101030.88;;;8.15;78.55
61568;BME280;47462;59.172;17.196;2022-10-17T04:56:00;101068.81;;;8.30;78.41
61568;BME280;47462;59.172;17.196;2022-10-17T04:58:28;100982.03;;;7.74;78.37
61568;BME280;47462;59.172;17.196;2022-10-17T05:00:54;101050.75;;;8.19;78.44
61568;BME280;47462;59.172;17.196;2022-10-17T05:03:20;101066.41;;;8.15;78.44
61568;BME280;47462;59.172;17.196;2022-10-17T05:05:45;100859.25;;;6.91;78.26
61568;BME280;47462;59.172;17.196;2022-10-17T05:08:11;100990.84;;;7.60;78.54
61568;BME280;47462;59.172;17.196;2022-10-17T05:10:39;101118.06;;;8.43;78.11
61568;BME280;47462;59.172;17.196;2022-10-17T05:13:06;101074.22;;;8.15;78.42
61568;BME280;47462;59.172;17.196;2022-10-17T05:15:31;100806.19;;;6.39;78.28
61568;BME280;47462;59.172;17.196;2022-10-17T05:18:00;101135.56;;;8.28;78.64
61568;BME280;47462;59.172;17.196;2022-10-17T05:20:28;101135.50;;;8.31;78.61
61568;BME280;47462;59.172;17.196;2022-10-17T05:22:57;101013.44;;;7.54;78.44
61568;BME280;47462;59.172;17.196;2022-10-17T05:25:27;101126.06;;;8.26;78.81
61568;BME280;47462;59.172;17.196;2022-10-17T05:28:01;101169.41;;;8.24;78.80
61568;BME280;47462;59.172;17.196;2022-10-17T05:30:27;101144.38;;;8.16;79.18
61568;BME280;47462;59.172;17.196;2022-10-17T05:33:01;101028.31;;;7.36;79.11
61568;BME280;47462;59.172;17.196;2022-10-17T05:35:29;101099.63;;;7.88;79.30
61568;BME280;47462;59.172;17.196;2022-10-17T05:37:56;101159.16;;;8.11;79.50
61568;BME280;47462;59.172;17.196;2022-10-17T05:40:24;101149.72;;;8.06;79.24
61568;BME280;47462;59.172;17.196;2022-10-17T05:42:55;101051.50;;;7.55;79.03
61568;BME280;47462;59.172;17.196;2022-10-17T05:45:24;101134.19;;;7.99;78.94
61568;BME280;47462;59.172;17.196;2022-10-17T05:47:52;101126.53;;;7.82;78.95
61568;BME280;47462;59.172;17.196;2022-10-17T05:50:18;101159.31;;;7.97;79.35
61568;BME280;47462;59.172;17.196;2022-10-17T05:52:46;101045.72;;;7.26;79.47
61568;BME280;47462;59.172;17.196;2022-10-17T05:55:12;100969.25;;;6.70;79.57
61568;BME280;47462;59.172;17.196;2022-10-17T05:57:39;101156.78;;;7.91;79.75
61568;BME280;47462;59.172;17.196;2022-10-17T06:00:05;101143.91;;;7.77;79.96
61568;BME280;47462;59.172;17.196;2022-10-17T06:02:32;101162.88;;;7.85;80.20
61568;BME280;47462;59.172;17.196;2022-10-17T06:04:59;101120.69;;;7.63;79.74
61568;BME280;47462;59.172;17.196;2022-10-17T06:07:24;101216.41;;;8.07;79.84
61568;BME280;47462;59.172;17.196;2022-10-17T06:09:50;101239.72;;;8.13;79.89
61568;BME280;47462;59.172;17.196;2022-10-17T06:12:15;101217.16;;;8.18;79.70
61568;BME280;47462;59.172;17.196;2022-10-17T06:14:42;101206.00;;;8.07;79.89
61568;BME280;47462;59.172;17.196;2022-10-17T06:17:08;101244.00;;;8.18;79.77
61568;BME280;47462;59.172;17.196;2022-10-17T06:19:35;101144.09;;;7.59;79.73
61568;BME280;47462;59.172;17.196;2022-10-17T06:22:01;101156.16;;;7.66;79.89
61568;BME280;47462;59.172;17.196;2022-10-17T06:24:28;101245.69;;;8.26;80.04
61568;BME280;47462;59.172;17.196;2022-10-17T06:26:54;101108.69;;;7.50;80.00
61568;BME280;47462;59.172;17.196;2022-10-17T06:29:20;101250.78;;;8.35;79.71
61568;BME280;47462;59.172;17.196;2022-10-17T06:31:46;101233.59;;;8.21;79.67
61568;BME280;47462;59.172;17.196;2022-10-17T06:34:13;101269.78;;;8.42;79.52
61568;BME280;47462;59.172;17.196;2022-10-17T06:36:39;101134.66;;;7.50;79.78
61568;BME280;47462;59.172;17.196;2022-10-17T06:39:06;101220.78;;;8.01;79.82
61568;BME280;47462;59.172;17.196;2022-10-17T06:41:33;101257.06;;;8.14;79.97
61568;BME280;47462;59.172;17.196;2022-10-17T06:43:59;101297.53;;;8.41;79.55
61568;BME280;47462;59.172;17.196;2022-10-17T06:46:24;101293.19;;;8.40;79.92
61568;BME280;47462;59.172;17.196;2022-10-17T06:48:51;101266.44;;;8.29;79.58
61568;BME280;47462;59.172;17.196;2022-10-17T06:51:18;101317.38;;;8.56;79.88
61568;BME280;47462;59.172;17.196;2022-10-17T06:53:44;101287.91;;;8.51;79.26
61568;BME280;47462;59.172;17.196;2022-10-17T06:56:10;101314.63;;;8.68;79.07
61568;BME280;47462;59.172;17.196;2022-10-17T06:58:37;101325.00;;;8.73;79.12
61568;BME280;47462;59.172;17.196;2022-10-17T07:01:06;101277.53;;;8.48;78.99
61568;BME280;47462;59.172;17.196;2022-10-17T07:03:33;101319.72;;;8.79;78.82
61568;BME280;47462;59.172;17.196;2022-10-17T07:06:01;101305.03;;;8.73;78.45
61568;BME280;47462;59.172;17.196;2022-10-17T07:08:28;101331.72;;;8.89;78.33
61568;BME280;47462;59.172;17.196;2022-10-17T07:10:54;101331.66;;;8.94;78.30
61568;BME280;47462;59.172;17.196;2022-10-17T07:13:23;101341.13;;;9.01;77.99
61568;BME280;47462;59.172;17.196;2022-10-17T07:15:49;101315.19;;;8.93;77.96
61568;BME280;47462;59.172;17.196;2022-10-17T07:18:15;101247.16;;;8.51;77.53
61568;BME280;47462;59.172;17.196;2022-10-17T07:20:41;101350.59;;;9.10;77.46
61568;BME280;47462;59.172;17.196;2022-10-17T07:23:09;101363.53;;;9.15;77.29
61568;BME280;47462;59.172;17.196;2022-10-17T07:25:35;101389.53;;;9.19;76.52
61568;BME280;47462;59.172;17.196;2022-10-17T07:28:01;101365.13;;;9.28;76.57
61568;BME280;47462;59.172;17.196;2022-10-17T07:30:28;101311.59;;;9.05;76.75
61568;BME280;47462;59.172;17.196;2022-10-17T07:32:54;101369.22;;;9.44;76.86
61568;BME280;47462;59.172;17.196;2022-10-17T07:35:22;101320.03;;;9.23;76.17
61568;BME280;47462;59.172;17.196;2022-10-17T07:37:47;101359.72;;;9.43;75.98
61568;BME280;47462;59.172;17.196;2022-10-17T07:40:12;101370.91;;;9.49;75.57
61568;BME280;47462;59.172;17.196;2022-10-17T07:42:41;101372.56;;;9.57;75.72
61568;BME280;47462;59.172;17.196;2022-10-17T07:45:10;101382.00;;;9.63;75.91
61568;BME280;47462;59.172;17.196;2022-10-17T07:47:35;101381.03;;;9.70;75.49
61568;BME280;47462;59.172;17.196;2022-10-17T07:50:03;101291.34;;;9.26;75.21
61568;BME280;47462;59.172;17.196;2022-10-17T07:52:30;101398.19;;;9.87;75.09
61568;BME280;47462;59.172;17.196;2022-10-17T07:54:55;101361.06;;;9.69;74.88
61568;BME280;47462;59.172;17.196;2022-10-17T07:57:26;101411.94;;;9.98;74.90
61568;BME280;47462;59.172;17.196;2022-10-17T07:59:51;101236.13;;;9.02;74.43
61568;BME280;47462;59.172;17.196;2022-10-17T08:02:26;101403.00;;;10.14;74.24
61568;BME280;47462;59.172;17.196;2022-10-17T08:04:52;101407.22;;;10.23;73.93
61568;BME280;47462;59.172;17.196;2022-10-17T08:07:18;101403.75;;;10.20;74.03
61568;BME280;47462;59.172;17.196;2022-10-17T08:09:44;101402.13;;;10.15;73.81
61568;BME280;47462;59.172;17.196;2022-10-17T08:12:15;101371.88;;;10.04;73.59
61568;BME280;47462;59.172;17.196;2022-10-17T08:14:43;101426.03;;;10.44;73.54
61568;BME280;47462;59.172;17.196;2022-10-17T08:17:09;101424.41;;;10.35;73.33
61568;BME280;47462;59.172;17.196;2022-10-17T08:19:44;101440.47;;;10.65;73.12
61568;BME280;47462;59.172;17.196;2022-10-17T08:22:11;101442.09;;;10.72;72.54
61568;BME280;47462;59.172;17.196;2022-10-17T08:24:37;101398.97;;;10.49;72.36
61568;BME280;47462;59.172;17.196;2022-10-17T08:27:07;101460.94;;;10.88;72.38
61568;BME280;47462;59.172;17.196;2022-10-17T08:29:37;101467.88;;;10.91;71.81
61568;BME280;47462;59.172;17.196;2022-10-17T08:32:04;101465.31;;;10.89;71.69
61568;BME280;47462;59.172;17.196;2022-10-17T08:34:30;101472.44;;;10.78;71.22
61568;BME280;47462;59.172;17.196;2022-10-17T08:36:59;101465.34;;;10.86;71.98
61568;BME280;47462;59.172;17.196;2022-10-17T08:39:25;101398.84;;;10.57;71.56
61568;BME280;47462;59.172;17.196;2022-10-17T08:47:03;101477.19;;;11.04;71.80
61568;BME280;47462;59.172;17.196;2022-10-17T08:49:53;101484.97;;;11.07;71.83
61568;BME280;47462;59.172;17.196;2022-10-17T08:52:56;101454.28;;;10.71;71.63
61568;BME280;47462;59.172;17.196;2022-10-17T08:55:50;101500.44;;;11.19;71.28
61568;BME280;47462;59.172;17.196;2022-10-17T08:58:20;101469.91;;;11.21;71.17
61568;BME280;47462;59.172;17.196;2022-10-17T09:03:48;101487.50;;;11.57;71.09
61568;BME280;47462;59.172;17.196;2022-10-17T09:06:24;101478.66;;;11.64;70.69
61568;BME280;47462;59.172;17.196;2022-10-17T09:11:41;101464.31;;;11.41;69.78
61568;BME280;47462;59.172;17.196;2022-10-17T09:19:59;101500.25;;;11.74;68.69
61568;BME280;47462;59.172;17.196;2022-10-17T09:22:32;101437.41;;;11.36;68.82
61568;BME280;47462;59.172;17.196;2022-10-17T09:25:04;101472.28;;;11.76;68.32
61568;BME280;47462;59.172;17.196;2022-10-17T09:30:46;101136.47;;;9.95;67.13
61568;BME280;47462;59.172;17.196;2022-10-17T09:33:18;101378.97;;;11.39;66.93
61568;BME280;47462;59.172;17.196;2022-10-17T09:35:45;101388.25;;;11.54;66.97
61568;BME280;47462;59.172;17.196;2022-10-17T09:38:18;101513.56;;;12.44;66.89
61568;BME280;47462;59.172;17.196;2022-10-17T09:40:50;101506.41;;;12.53;66.63
61568;BME280;47462;59.172;17.196;2022-10-17T09:43:16;101525.97;;;12.72;65.55
61568;BME280;47462;59.172;17.196;2022-10-17T09:46:16;101529.09;;;12.88;65.52
61568;BME280;47462;59.172;17.196;2022-10-17T09:48:48;101510.00;;;12.83;65.17
61568;BME280;47462;59.172;17.196;2022-10-17T09:51:15;101466.81;;;12.65;64.38
61568;BME280;47462;59.172;17.196;2022-10-17T09:53:45;101523.69;;;12.94;64.09
61568;BME280;47462;59.172;17.196;2022-10-17T09:56:16;101531.53;;;12.96;64.50
61568;BME280;47462;59.172;17.196;2022-10-17T09:58:51;101533.94;;;13.03;64.40
61568;BME280;47462;59.172;17.196;2022-10-17T10:01:26;101538.31;;;13.03;63.56
61568;BME280;47462;59.172;17.196;2022-10-17T10:04:10;101554.28;;;12.92;63.37
61568;BME280;47462;59.172;17.196;2022-10-17T10:06:37;101543.75;;;12.95;63.44
61568;BME280;47462;59.172;17.196;2022-10-17T10:09:21;101545.47;;;12.96;63.06
61568;BME280;47462;59.172;17.196;2022-10-17T10:11:54;101529.94;;;12.89;62.53
61568;BME280;47462;59.172;17.196;2022-10-17T10:14:35;101536.72;;;12.97;62.91
61568;BME280;47462;59.172;17.196;2022-10-17T10:17:08;101529.25;;;12.82;63.11
61568;BME280;47462;59.172;17.196;2022-10-17T10:19:50;101505.88;;;12.74;63.38
61568;BME280;47462;59.172;17.196;2022-10-17T10:22:20;101544.50;;;13.00;63.44
61568;BME280;47462;59.172;17.196;2022-10-17T10:27:36;101506.03;;;12.68;62.46
61568;BME280;47462;59.172;17.196;2022-10-17T10:30:05;101561.97;;;13.00;62.65
61568;BME280;47462;59.172;17.196;2022-10-17T10:32:34;101531.94;;;12.79;62.63
61568;BME280;47462;59.172;17.196;2022-10-17T10:35:21;101570.63;;;13.03;63.20
61568;BME280;47462;59.172;17.196;2022-10-17T10:37:53;101550.50;;;13.04;63.82
61568;BME280;47462;59.172;17.196;2022-10-17T10:40:34;101575.41;;;13.22;63.00
61568;BME280;47462;59.172;17.196;2022-10-17T10:43:03;101576.09;;;13.29;62.43
61568;BME280;47462;59.172;17.196;2022-10-17T10:48:19;101496.94;;;12.81;61.93
61568;BME280;47462;59.172;17.196;2022-10-17T10:50:58;101555.41;;;13.18;62.49
61568;BME280;47462;59.172;17.196;2022-10-17T11:01:24;101546.19;;;13.37;61.75
61568;BME280;47462;59.172;17.196;2022-10-17T11:03:59;101547.28;;;13.62;61.98
61568;BME280;47462;59.172;17.196;2022-10-17T11:06:31;101542.63;;;13.71;62.01
61568;BME280;47462;59.172;17.196;2022-10-17T11:09:31;101541.56;;;13.79;61.83
61568;BME280;47462;59.172;17.196;2022-10-17T11:14:56;101554.69;;;13.79;61.95
61568;BME280;47462;59.172;17.196;2022-10-17T11:17:38;101548.94;;;13.64;61.99
61568;BME280;47462;59.172;17.196;2022-10-17T11:22:36;101555.03;;;13.32;62.69
61568;BME280;47462;59.172;17.196;2022-10-17T11:25:16;101557.94;;;13.21;62.89
61568;BME280;47462;59.172;17.196;2022-10-17T11:27:45;101512.47;;;12.89;63.54
61568;BME280;47462;59.172;17.196;2022-10-17T11:30:13;101499.44;;;12.86;63.90
61568;BME280;47462;59.172;17.196;2022-10-17T11:32:50;101564.16;;;13.18;64.01
61568;BME280;47462;59.172;17.196;2022-10-17T11:35:22;101560.72;;;13.15;64.60
61568;BME280;47462;59.172;17.196;2022-10-17T11:40:34;101566.34;;;12.99;64.63
61568;BME280;47462;59.172;17.196;2022-10-17T11:43:13;101574.25;;;12.98;65.24
61568;BME280;47462;59.172;17.196;2022-10-17T11:45:47;101566.47;;;12.95;64.36
61568;BME280;47462;59.172;17.196;2022-10-17T11:48:28;101568.31;;;12.91;64.67
61568;BME280;47462;59.172;17.196;2022-10-17T11:51:24;101350.66;;;11.59;64.68
61568;BME280;47462;59.172;17.196;2022-10-17T11:54:09;101570.34;;;12.78;65.08
61568;BME280;47462;59.172;17.196;2022-10-17T12:02:15;101483.84;;;12.47;65.57
61568;BME280;47462;59.172;17.196;2022-10-17T12:07:33;101533.69;;;12.78;65.53
61568;BME280;47462;59.172;17.196;2022-10-17T12:10:24;101557.94;;;12.87;65.95
61568;BME280;47462;59.172;17.196;2022-10-17T12:21:07;101103.63;;;9.87;66.25
61568;BME280;47462;59.172;17.196;2022-10-17T12:23:32;101388.34;;;11.49;66.54
61568;BME280;47462;59.172;17.196;2022-10-17T12:26:06;101551.56;;;12.61;66.68
61568;BME280;47462;59.172;17.196;2022-10-17T12:28:40;101479.53;;;12.07;67.64
61568;BME280;47462;59.172;17.196;2022-10-17T12:31:09;101551.69;;;12.56;67.87
61568;BME280;47462;59.172;17.196;2022-10-17T12:33:57;101519.75;;;12.40;67.28
61568;BME280;47462;59.172;17.196;2022-10-17T12:46:50;101546.63;;;12.48;67.15
61568;BME280;47462;59.172;17.196;2022-10-17T12:49:47;101551.06;;;12.45;66.74
61568;BME280;47462;59.172;17.196;2022-10-17T12:57:52;101552.25;;;12.31;67.95
61568;BME280;47462;59.172;17.196;2022-10-17T13:30:29;101556.06;;;12.17;69.51
61568;BME280;47462;59.172;17.196;2022-10-17T13:32:58;101536.97;;;12.13;70.10
61568;BME280;47462;59.172;17.196;2022-10-17T13:37:53;101524.72;;;12.13;69.79
61568;BME280;47462;59.172;17.196;2022-10-17T13:40:29;101539.22;;;12.28;70.48
61568;BME280;47462;59.172;17.196;2022-10-17T13:43:00;101515.09;;;12.14;70.05
61568;BME280;47462;59.172;17.196;2022-10-17T13:45:37;101547.16;;;12.25;70.77
61568;BME280;47462;59.172;17.196;2022-10-17T13:48:14;101538.59;;;12.17;70.49
61568;BME280;47462;59.172;17.196;2022-10-17T13:50:49;101582.22;;;12.17;70.30
61568;BME280;47462;59.172;17.196;2022-10-17T13:53:31;101548.28;;;12.13;71.42
61568;BME280;47462;59.172;17.196;2022-10-17T13:58:53;101548.38;;;12.09;72.01
61568;BME280;47462;59.172;17.196;2022-10-17T14:01:22;101455.44;;;11.50;71.93
61568;BME280;47462;59.172;17.196;2022-10-17T14:03:58;101416.00;;;11.17;71.09
61568;BME280;47462;59.172;17.196;2022-10-17T14:06:31;101437.44;;;11.35;71.81
61568;BME280;47462;59.172;17.196;2022-10-17T14:09:26;101539.97;;;11.94;72.00
61568;BME280;47462;59.172;17.196;2022-10-17T14:12:08;101467.94;;;11.33;72.55
61568;BME280;47462;59.172;17.196;2022-10-17T14:14:39;101508.31;;;11.63;72.32
61568;BME280;47462;59.172;17.196;2022-10-17T14:17:35;101524.56;;;11.77;72.43
61568;BME280;47462;59.172;17.196;2022-10-17T14:20:03;101529.94;;;11.70;72.72
61568;BME280;47462;59.172;17.196;2022-10-17T14:22:40;101534.22;;;11.74;72.82
61568;BME280;47462;59.172;17.196;2022-10-17T14:25:36;101533.50;;;11.67;73.15
61568;BME280;47462;59.172;17.196;2022-10-17T14:30:41;101533.56;;;11.64;73.39
61568;BME280;47462;59.172;17.196;2022-10-17T14:33:34;101526.63;;;11.62;73.41
61568;BME280;47462;59.172;17.196;2022-10-17T14:36:02;101232.50;;;9.70;73.12
61568;BME280;47462;59.172;17.196;2022-10-17T14:38:30;101513.63;;;11.58;73.46
61568;BME280;47462;59.172;17.196;2022-10-17T14:41:05;101517.97;;;11.59;73.90
61568;BME280;47462;59.172;17.196;2022-10-17T14:43:34;101480.88;;;11.40;74.31
61568;BME280;47462;59.172;17.196;2022-10-17T14:46:00;101499.03;;;11.47;74.00
61568;BME280;47462;59.172;17.196;2022-10-17T14:48:28;101486.91;;;11.44;73.79
61568;BME280;47462;59.172;17.196;2022-10-17T14:51:16;101500.75;;;11.49;74.03
61568;BME280;47462;59.172;17.196;2022-10-17T14:56:39;101469.03;;;11.22;74.50
61568;BME280;47462;59.172;17.196;2022-10-17T14:59:06;101511.38;;;11.40;74.66
61568;BME280;47462;59.172;17.196;2022-10-17T15:01:34;101500.94;;;11.40;74.71
61568;BME280;47462;59.172;17.196;2022-10-17T15:04:04;101498.38;;;11.37;74.71
61568;BME280;47462;59.172;17.196;2022-10-17T15:06:33;101499.25;;;11.36;75.00
61568;BME280;47462;59.172;17.196;2022-10-17T15:09:00;101494.06;;;11.34;75.23
61568;BME280;47462;59.172;17.196;2022-10-17T15:11:29;101450.13;;;11.08;75.49
61568;BME280;47462;59.172;17.196;2022-10-17T15:13:56;101497.59;;;11.32;75.68
61568;BME280;47462;59.172;17.196;2022-10-17T15:16:25;101488.91;;;11.30;75.91
61568;BME280;47462;59.172;17.196;2022-10-17T15:18:52;101509.84;;;11.28;76.40
61568;BME280;47462;59.172;17.196;2022-10-17T15:21:20;101501.25;;;11.23;76.47
61568;BME280;47462;59.172;17.196;2022-10-17T15:23:50;101474.66;;;10.99;76.46
61568;BME280;47462;59.172;17.196;2022-10-17T15:26:21;101487.41;;;11.16;76.46
61568;BME280;47462;59.172;17.196;2022-10-17T15:28:49;101378.94;;;10.51;76.21